Pavilion, New York
Current Conditions -  °F | °C
As of 12:54 PM on Tuesday 21 Oct 2014 (Local Time) from KROC Reporting Station
Light Rain Light Rain  
Wind Chill: 53°   Ceiling: 1400
Heat Index: 53°   Visibility: 4mi
Dew Point: 50°   Wind: 6mph
Humidity: 89%   Direction: 360°N
Pressure: 29.86"   Gusts: NA
Location:  42.88°N, 78.02°W
Report Text: KROC 211654Z 36005KT 4SM -RA BR SCT007 OVC014 12/10 A2986 RMK AO2 RAB04E42B49 SLP114 P0001 T01170100
Loading
Personal Weather Stations






























Interactive Weather Map
Tropical Storm Tracking
New forecast layout! Learn more

10-Day Weather Forecast

Advertisements
Track Severe Weather on mobile